Time;durP1;ratioP1;P1;durP2;ratioP2;P2;SDS_P1;SDS_P2;PMS_P1;PMS_P2;Temp;Humidity;BMP_temperature;BMP_pressure;BME280_temperature;BME280_humidity;BME280_pressure;Samples;Min_cycle;Max_cycle;Signal;HPM_P1;HPM_P2
2021/06/04 00:00:44;;;;;;;1.87;1.02;;;;;;;14.65;65.40;100082.58;1676555;84;21073;-58
2021/06/04 00:03:19;;;;;;;1.47;1.00;;;;;;;14.64;65.17;100084.41;1689759;83;22489;-57
2021/06/04 00:05:49;;;;;;;3.40;0.90;;;;;;;14.63;65.11;100081.83;1697614;83;21520;-57
2021/06/04 00:08:17;;;;;;;4.20;1.55;;;;;;;14.63;64.14;100080.47;1692295;83;21057;-57
2021/06/04 00:10:57;;;;;;;3.85;1.00;;;;;;;14.66;63.75;100083.85;1691008;83;21073;-57
2021/06/04 00:13:37;;;;;;;3.55;0.85;;;;;;;14.71;63.63;100083.11;1692689;83;21065;-58
2021/06/04 00:16:11;;;;;;;1.70;0.93;;;;;;;14.74;63.83;100084.74;1690127;83;21554;-58
2021/06/04 00:18:39;;;;;;;3.72;0.90;;;;;;;14.73;63.54;100079.80;1691653;83;21093;-56
2021/06/04 00:21:11;;;;;;;2.65;0.90;;;;;;;14.74;63.89;100080.20;1691952;83;21587;-57
2021/06/04 00:23:37;;;;;;;2.67;1.00;;;;;;;14.71;64.10;100079.05;1691078;83;21422;-58
2021/06/04 00:26:05;;;;;;;4.35;1.10;;;;;;;14.68;64.16;100079.22;1696317;83;20919;-57
2021/06/04 00:28:31;;;;;;;2.72;1.00;;;;;;;14.65;64.49;100082.10;1692659;83;21096;-58
2021/06/04 00:30:58;;;;;;;5.28;1.30;;;;;;;14.62;64.60;100085.50;1693045;83;20999;-56
2021/06/04 00:33:25;;;;;;;4.37;1.00;;;;;;;14.58;64.64;100081.20;1691241;83;20938;-57
2021/06/04 00:35:51;;;;;;;4.17;0.95;;;;;;;14.54;64.26;100087.30;1696019;83;21422;-57
2021/06/04 00:38:18;;;;;;;2.12;0.90;;;;;;;14.54;64.04;100085.95;1694163;83;21425;-57
2021/06/04 00:40:48;;;;;;;1.55;0.95;;;;;;;14.55;64.10;100075.95;1691508;83;21367;-57
2021/06/04 00:43:17;;;;;;;3.22;1.15;;;;;;;14.58;63.94;100084.79;1693652;83;22116;-56
2021/06/04 00:45:48;;;;;;;8.18;1.00;;;;;;;14.59;64.60;100085.19;1694928;83;20905;-58
2021/06/04 00:48:17;;;;;;;3.05;0.90;;;;;;;14.59;64.81;100082.48;1701628;82;21010;-57
2021/06/04 00:50:55;;;;;;;2.37;1.10;;;;;;;14.58;64.25;100087.50;1708288;82;20907;-57
2021/06/04 00:53:23;;;;;;;2.92;1.00;;;;;;;14.58;64.21;100079.85;1669238;83;21131;-57
2021/06/04 00:55:51;;;;;;;1.47;0.88;;;;;;;14.55;63.48;100085.44;1655216;83;20944;-58
2021/06/04 00:58:24;;;;;;;6.22;1.65;;;;;;;14.54;63.28;100080.53;1692822;82;20892;-56
2021/06/04 01:00:52;;;;;;;1.42;1.00;;;;;;;14.54;63.45;100083.72;1692480;82;20972;-57
2021/06/04 01:03:24;;;;;;;1.70;1.22;;;;;;;14.52;64.00;100082.45;1688540;83;21959;-57
2021/06/04 01:05:54;;;;;;;2.17;1.20;;;;;;;14.49;63.93;100081.75;1678459;83;21482;-57
2021/06/04 01:09:06;;;;;;;3.37;0.90;;;;;;;14.48;64.32;100089.00;1676470;83;21022;-58
2021/06/04 01:11:57;;;;;;;0.90;0.80;;;;;;;14.46;64.92;100087.37;1669626;83;21038;-53
2021/06/04 01:15:08;;;;;;;2.10;0.80;;;;;;;14.43;65.22;100085.70;1615638;83;21043;-58
2021/06/04 01:17:52;;;;;;;1.72;0.90;;;;;;;14.41;65.47;100085.39;1705076;82;20959;-55
2021/06/04 01:20:33;;;;;;;2.35;0.80;;;;;;;14.38;65.55;100080.54;1678171;82;20985;-54
2021/06/04 01:23:12;;;;;;;2.33;0.80;;;;;;;14.36;65.50;100087.87;1704666;82;21088;-55
2021/06/04 01:25:49;;;;;;;1.65;1.20;;;;;;;14.37;65.74;100086.88;1699999;82;21153;-53
2021/06/04 01:28:27;;;;;;;3.92;1.17;;;;;;;14.36;65.85;100091.06;1705820;82;21030;-57
2021/06/04 01:31:30;;;;;;;2.50;0.90;;;;;;;14.32;65.66;100087.64;1704662;82;21308;-57
2021/06/04 01:34:14;;;;;;;2.25;0.90;;;;;;;14.31;64.84;100085.02;1676123;83;21158;-57
2021/06/04 01:36:49;;;;;;;4.45;1.17;;;;;;;14.27;64.85;100088.41;1691114;82;21127;-57
2021/06/04 01:39:20;;;;;;;1.70;1.30;;;;;;;14.25;65.20;100089.45;1692866;82;21126;-56
2021/06/04 01:41:49;;;;;;;4.15;1.00;;;;;;;14.19;65.51;100094.75;1706858;82;21463;-55
2021/06/04 01:44:23;;;;;;;2.30;0.90;;;;;;;14.12;65.52;100098.73;1674315;83;21104;-55
2021/06/04 01:46:53;;;;;;;2.50;1.00;;;;;;;14.09;65.69;100089.94;1675969;83;21930;-54
2021/06/04 01:49:24;;;;;;;4.28;1.35;;;;;;;14.04;65.32;100086.12;1702098;83;21061;-57
2021/06/04 01:51:57;;;;;;;3.12;0.98;;;;;;;14.05;65.57;100093.77;1680034;83;21052;-55
2021/06/04 01:54:44;;;;;;;2.42;0.90;;;;;;;14.05;65.81;100088.35;1685083;84;21418;-57
2021/06/04 01:57:16;;;;;;;2.50;0.90;;;;;;;14.04;65.97;100092.89;1673865;83;21088;-57
2021/06/04 01:59:45;;;;;;;1.37;0.90;;;;;;;14.04;66.30;100096.95;1687538;84;21114;-57
2021/06/04 02:02:23;;;;;;;2.27;1.55;;;;;;;14.04;66.41;100094.25;1657536;83;21073;-57
2021/06/04 02:04:54;;;;;;;5.53;1.00;;;;;;;14.04;66.33;100094.25;1685068;84;22307;-57
2021/06/04 02:07:24;;;;;;;2.35;0.78;;;;;;;14.06;66.50;100103.16;1689173;84;21442;-57
2021/06/04 02:09:52;;;;;;;1.40;0.90;;;;;;;14.04;66.43;100096.95;1678307;83;21147;-58
2021/06/04 02:12:23;;;;;;;3.05;1.25;;;;;;;14.05;66.36;100096.47;1692733;84;21875;-58
2021/06/04 02:15:14;;;;;;;4.62;1.00;;;;;;;14.03;66.55;100108.25;1689391;84;21078;-57
2021/06/04 02:18:21;;;;;;;2.75;1.00;;;;;;;13.97;66.79;100104.55;1675772;83;21207;-57
2021/06/04 02:21:04;;;;;;;2.47;1.32;;;;;;;13.94;66.84;100105.22;1686403;84;21623;-58
2021/06/04 02:24:16;;;;;;;2.75;0.88;;;;;;;13.94;67.16;100096.62;1701069;82;21030;-58
2021/06/04 02:26:57;;;;;;;1.30;1.00;;;;;;;13.93;67.30;100097.58;1712020;82;21557;-57
2021/06/04 02:29:35;;;;;;;3.75;1.30;;;;;;;13.95;67.69;100102.41;1687695;84;21102;-57
2021/06/04 02:32:19;;;;;;;3.87;0.88;;;;;;;13.97;67.56;100105.91;1679598;83;21096;-58
2021/06/04 02:34:51;;;;;;;1.62;1.00;;;;;;;14.00;67.28;100103.52;1688702;84;21070;-57
2021/06/04 02:37:25;;;;;;;1.35;0.80;;;;;;;14.01;67.06;100103.44;1679950;83;21064;-58
2021/06/04 02:39:58;;;;;;;2.25;0.85;;;;;;;14.03;67.07;100104.70;1663555;84;21686;-58
2021/06/04 02:42:43;;;;;;;3.50;1.00;;;;;;;14.04;67.36;100107.78;1702541;82;20986;-57
2021/06/04 02:45:30;;;;;;;5.53;1.00;;;;;;;14.05;67.86;100107.30;1676562;83;21684;-58
2021/06/04 02:48:03;;;;;;;5.45;1.20;;;;;;;14.05;67.95;100112.23;1686436;84;21474;-59
2021/06/04 02:50:48;;;;;;;3.90;0.90;;;;;;;14.04;67.94;100109.13;1679976;83;21001;-57
2021/06/04 02:53:29;;;;;;;2.40;0.90;;;;;;;14.08;67.48;100108.48;1689049;84;21410;-58
2021/06/04 02:56:20;;;;;;;3.70;1.35;;;;;;;14.12;66.87;100104.66;1684030;83;21499;-58
2021/06/04 02:58:58;;;;;;;1.32;0.90;;;;;;;14.18;66.37;100111.95;1688067;84;21019;-58
2021/06/04 03:01:26;;;;;;;4.50;1.10;;;;;;;14.22;65.97;100110.79;1698839;82;21058;-57
2021/06/04 03:03:57;;;;;;;2.12;1.25;;;;;;;14.24;65.75;100116.13;1677539;83;21382;-56
2021/06/04 03:06:30;;;;;;;3.95;0.90;;;;;;;14.28;65.45;100115.88;1663496;84;22575;-56
2021/06/04 03:09:01;;;;;;;4.70;0.98;;;;;;;14.31;65.30;100107.56;1676648;83;21605;-56
2021/06/04 03:11:26;;;;;;;1.37;1.10;;;;;;;14.35;65.16;100106.91;1683854;84;20981;-56
2021/06/04 03:13:53;;;;;;;1.55;1.05;;;;;;;14.38;65.46;100108.97;1680137;83;21028;-57
2021/06/04 03:16:22;;;;;;;4.37;1.20;;;;;;;14.41;65.69;100107.06;1687752;84;21153;-58
2021/06/04 03:18:54;;;;;;;1.72;1.25;;;;;;;14.42;65.39;100106.97;1687042;84;22878;-57
2021/06/04 03:21:27;;;;;;;2.50;1.12;;;;;;;14.47;65.41;100109.40;1657686;83;21535;-57
2021/06/04 03:23:56;;;;;;;3.03;0.90;;;;;;;14.51;65.12;100102.86;1673189;83;21422;-58
2021/06/04 03:26:26;;;;;;;1.10;0.85;;;;;;;14.57;64.98;100106.06;1696445;83;21757;-59
2021/06/04 03:28:56;;;;;;;1.90;1.20;;;;;;;14.65;65.10;100112.38;1695687;83;21492;-56
2021/06/04 03:31:26;;;;;;;3.72;1.00;;;;;;;14.70;64.93;100111.65;1700066;83;21899;-58
2021/06/04 03:33:53;;;;;;;2.27;1.10;;;;;;;14.77;64.98;100107.61;1695215;83;21370;-58
2021/06/04 03:36:24;;;;;;;5.62;0.90;;;;;;;14.84;64.69;100106.27;1700070;83;20965;-58
2021/06/04 03:38:51;;;;;;;2.62;1.17;;;;;;;14.89;64.49;100112.27;1696481;83;21038;-58
2021/06/04 03:41:23;;;;;;;1.57;1.07;;;;;;;14.94;64.27;100106.11;1701021;83;21391;-59
2021/06/04 03:43:51;;;;;;;6.08;1.20;;;;;;;14.99;64.25;100103.98;1694433;83;21065;-58
2021/06/04 03:46:18;;;;;;;9.28;1.40;;;;;;;15.01;63.79;100110.19;1701420;83;20872;-58
2021/06/04 03:48:48;;;;;;;3.08;1.20;;;;;;;15.03;63.77;100101.97;1724808;81;20954;-59
2021/06/04 03:51:21;;;;;;;4.40;0.95;;;;;;;15.05;63.76;100106.82;1657716;84;21496;-56
2021/06/04 03:53:47;;;;;;;2.10;1.10;;;;;;;15.03;63.68;100101.48;1692277;83;20966;-58
2021/06/04 03:56:15;;;;;;;3.15;1.40;;;;;;;15.04;63.39;100098.30;1689380;84;21138;-56
2021/06/04 03:58:42;;;;;;;3.50;1.10;;;;;;;15.02;63.40;100101.09;1667290;84;20890;-56
2021/06/04 04:02:01;;;;;;;2.73;1.00;;;;;;;15.10;63.58;100097.91;1794459;78;22759;-58
2021/06/04 04:04:28;;;;;;;5.83;0.95;;;;;;;15.10;63.63;100102.84;1767068;79;20973;-58
2021/06/04 04:06:54;;;;;;;6.65;1.37;;;;;;;15.18;63.64;100096.08;1774471;79;20927;-58
2021/06/04 04:09:22;;;;;;;2.85;1.15;;;;;;;15.22;63.33;100099.01;1761049;79;20973;-58
2021/06/04 04:11:51;;;;;;;2.58;1.70;;;;;;;15.24;63.28;100100.63;1758212;79;21589;-59
2021/06/04 04:14:20;;;;;;;5.28;1.10;;;;;;;15.28;63.30;100102.69;1767580;79;20988;-58
2021/06/04 04:16:47;;;;;;;3.17;1.20;;;;;;;15.32;63.26;100090.66;1775935;79;21010;-57
2021/06/04 04:19:19;;;;;;;3.67;1.20;;;;;;;15.37;63.09;100104.34;1769597;79;21451;-60
2021/06/04 04:21:46;;;;;;;6.10;1.40;;;;;;;15.37;62.87;100097.56;1765040;79;21023;-59
2021/06/04 04:24:16;;;;;;;3.70;1.00;;;;;;;15.39;63.02;100097.47;1772847;79;21107;-58
2021/06/04 04:26:43;;;;;;;5.42;1.37;;;;;;;15.40;62.98;100103.26;1765392;79;20974;-58
2021/06/04 04:29:10;;;;;;;3.60;1.20;;;;;;;15.42;63.08;100098.62;1762644;80;21055;-58
2021/06/04 04:31:41;;;;;;;3.65;1.47;;;;;;;15.43;63.24;100100.36;1766249;79;22348;-58
2021/06/04 04:34:07;;;;;;;7.17;1.10;;;;;;;15.45;63.51;100110.16;1761154;79;21060;-57
2021/06/04 04:36:38;;;;;;;1.40;0.95;;;;;;;15.45;63.19;100103.38;1746719;79;21480;-59
2021/06/04 04:39:07;;;;;;;3.65;0.80;;;;;;;15.50;63.15;100107.14;1770101;79;21231;-58
2021/06/04 04:41:34;;;;;;;3.72;0.90;;;;;;;15.54;63.25;100101.97;1772823;78;21467;-59
2021/06/04 04:44:00;;;;;;;4.62;1.15;;;;;;;15.60;63.29;100101.56;1769295;78;22102;-59
2021/06/04 04:46:28;;;;;;;6.70;1.15;;;;;;;15.66;63.16;100102.53;1764973;79;21104;-59
2021/06/04 04:48:56;;;;;;;9.90;1.10;;;;;;;15.74;62.89;100106.98;1778095;78;21372;-59
2021/06/04 04:51:23;;;;;;;4.90;1.15;;;;;;;15.80;62.69;100101.19;1771259;78;20999;-58
2021/06/04 04:53:51;;;;;;;4.00;1.20;;;;;;;15.86;62.60;100100.78;1770987;78;21535;-57
2021/06/04 04:56:20;;;;;;;4.70;1.10;;;;;;;15.91;61.97;100105.89;1777045;78;21114;-59
2021/06/04 04:58:47;;;;;;;3.83;1.07;;;;;;;15.94;62.12;100104.35;1766435;78;21033;-58
2021/06/04 05:01:14;;;;;;;7.25;1.10;;;;;;;15.98;61.88;100105.04;1764554;78;21417;-59
2021/06/04 05:03:40;;;;;;;3.50;1.10;;;;;;;15.99;61.89;100102.72;1755427;79;21563;-59
2021/06/04 05:06:09;;;;;;;2.67;1.20;;;;;;;16.02;61.71;100104.72;1759599;79;21035;-59
2021/06/04 05:08:37;;;;;;;6.58;1.20;;;;;;;16.06;61.87;100110.36;1757688;79;21179;-57
2021/06/04 05:11:04;;;;;;;2.47;1.10;;;;;;;16.14;61.66;100108.50;1766590;79;20977;-57
2021/06/04 05:13:31;;;;;;;5.00;1.30;;;;;;;16.18;61.34;100116.33;1759599;79;20986;-60
2021/06/04 05:15:59;;;;;;;8.83;1.55;;;;;;;16.20;61.33;100110.80;1756713;79;21118;-59
2021/06/04 05:18:26;;;;;;;4.40;1.37;;;;;;;16.23;61.15;100108.77;1752122;79;21300;-58
2021/06/04 05:20:53;;;;;;;3.52;1.62;;;;;;;16.28;61.19;100112.04;1746278;79;21134;-60
2021/06/04 05:23:20;;;;;;;7.10;0.90;;;;;;;16.36;60.83;100104.73;1748767;79;21074;-60
2021/06/04 05:25:49;;;;;;;4.00;0.90;;;;;;;16.62;61.22;100107.98;1752020;79;21078;-57
2021/06/04 05:28:19;;;;;;;3.55;1.10;;;;;;;16.62;61.22;100107.98;1749779;79;21051;-58
2021/06/04 05:30:47;;;;;;;3.05;1.30;;;;;;;16.79;61.08;100110.03;1753432;79;21113;-60
2021/06/04 05:33:19;;;;;;;7.75;1.05;;;;;;;16.92;59.90;100115.03;1747801;79;21113;-60
2021/06/04 05:35:46;;;;;;;1.65;1.00;;;;;;;17.12;58.59;100105.48;1749583;79;21381;-60
2021/06/04 05:38:13;;;;;;;5.08;1.07;;;;;;;17.12;58.59;100105.48;1748424;79;20946;-57
2021/06/04 05:40:43;;;;;;;3.37;1.12;;;;;;;17.23;58.56;100113.77;1757799;79;21030;-58
2021/06/04 05:43:13;;;;;;;2.85;1.00;;;;;;;17.23;58.56;100113.77;1759672;79;20888;-59
2021/06/04 05:45:42;;;;;;;2.80;1.00;;;;;;;17.29;58.56;100108.77;1755072;79;21748;-59
2021/06/04 05:48:09;;;;;;;1.20;0.90;;;;;;;17.39;58.27;100121.23;1749326;79;21069;-58
2021/06/04 05:50:38;;;;;;;3.47;1.35;;;;;;;17.46;57.72;100115.73;1755060;79;20934;-57
2021/06/04 05:53:08;;;;;;;7.25;0.98;;;;;;;17.54;56.84;100120.64;1751424;79;20982;-59
2021/06/04 05:55:36;;;;;;;2.67;1.00;;;;;;;17.62;56.53;100118.27;1752832;79;21022;-59
2021/06/04 05:58:05;;;;;;;4.42;0.90;;;;;;;17.70;55.97;100122.19;1752712;79;21093;-57
2021/06/04 06:00:35;;;;;;;3.00;1.25;;;;;;;17.76;55.87;100125.85;1757934;80;21126;-59
2021/06/04 06:03:04;;;;;;;3.65;0.90;;;;;;;17.86;54.79;100120.62;1753040;79;20990;-57
2021/06/04 06:05:30;;;;;;;4.60;0.80;;;;;;;17.94;54.59;100116.84;1711250;81;21059;-58
2021/06/04 06:07:57;;;;;;;3.83;0.80;;;;;;;18.03;53.33;100113.42;1694712;82;20955;-57
2021/06/04 06:10:23;;;;;;;1.90;0.80;;;;;;;18.13;53.78;100114.98;1695814;82;21603;-58
2021/06/04 06:12:51;;;;;;;1.80;0.80;;;;;;;18.24;52.25;100109.62;1746834;79;21105;-58
2021/06/04 06:15:19;;;;;;;2.98;0.65;;;;;;;18.36;52.12;100107.36;1761118;79;20903;-59
2021/06/04 06:17:47;;;;;;;5.80;1.15;;;;;;;18.46;51.32;100104.78;1751231;79;20910;-59
2021/06/04 06:20:16;;;;;;;6.25;1.32;;;;;;;18.57;51.67;100105.37;1750933;79;20970;-59
2021/06/04 06:22:43;;;;;;;5.05;1.20;;;;;;;18.67;49.49;100101.84;1747946;79;21807;-57
2021/06/04 06:25:13;;;;;;;7.47;0.90;;;;;;;18.78;48.30;100095.09;1751170;79;20880;-58
2021/06/04 06:27:39;;;;;;;2.98;0.65;;;;;;;18.89;47.27;100093.75;1750594;79;21629;-58
2021/06/04 06:30:07;;;;;;;0.85;0.50;;;;;;;19.01;46.90;100092.44;1751789;79;20922;-58
2021/06/04 06:32:34;;;;;;;1.37;0.50;;;;;;;19.12;45.21;100096.08;1752714;79;20899;-59
2021/06/04 06:35:01;;;;;;;2.87;0.68;;;;;;;19.21;45.04;100098.09;1700087;82;21094;-59
2021/06/04 06:37:28;;;;;;;7.03;0.60;;;;;;;19.30;44.44;100091.04;1752020;79;20860;-57
2021/06/04 06:39:55;;;;;;;4.95;0.55;;;;;;;19.36;44.58;100091.91;1754030;79;21330;-58
2021/06/04 06:42:21;;;;;;;6.42;0.60;;;;;;;19.40;43.65;100092.02;1701063;82;21469;-57
2021/06/04 06:44:47;;;;;;;2.60;1.15;;;;;;;19.40;42.95;100097.48;1758232;79;20876;-58
2021/06/04 06:47:14;;;;;;;2.77;0.60;;;;;;;19.40;44.30;100098.84;1756100;79;21092;-58
2021/06/04 06:49:41;;;;;;;2.02;0.60;;;;;;;19.40;44.20;100100.21;1759341;79;20907;-57
2021/06/04 06:52:09;;;;;;;13.25;1.35;;;;;;;19.43;43.23;100099.98;1751558;80;20950;-59
2021/06/04 06:54:36;;;;;;;1.30;0.70;;;;;;;19.47;44.16;100105.63;1747945;80;20903;-57
2021/06/04 06:57:03;;;;;;;3.52;0.60;;;;;;;19.50;43.56;100103.12;1752755;79;20907;-57
2021/06/04 06:59:30;;;;;;;2.47;0.60;;;;;;;19.52;42.78;100099.78;1749143;79;20961;-59
2021/06/04 07:01:59;;;;;;;6.12;0.60;;;;;;;19.55;43.01;100104.52;1755643;79;21750;-56
2021/06/04 07:04:26;;;;;;;15.38;0.78;;;;;;;19.56;41.96;100098.03;1750757;79;21445;-56
2021/06/04 07:06:52;;;;;;;3.45;0.50;;;;;;;19.61;41.76;100100.41;1752638;79;20966;-57
2021/06/04 07:09:19;;;;;;;1.82;0.60;;;;;;;19.67;40.84;100096.31;1753590;79;20942;-60
2021/06/04 07:11:53;;;;;;;6.83;0.80;;;;;;;19.68;40.91;100108.98;1749477;79;21732;-60
2021/06/04 07:14:26;;;;;;;4.42;0.50;;;;;;;19.68;40.30;100107.61;1750317;79;21022;-60
2021/06/04 07:16:53;;;;;;;3.55;0.60;;;;;;;19.67;39.58;100106.73;1747584;80;21496;-57
2021/06/04 07:19:19;;;;;;;1.90;0.60;;;;;;;19.68;40.91;100104.87;1751505;79;21481;-58
2021/06/04 07:21:45;;;;;;;4.30;0.50;;;;;;;19.71;40.10;100090.99;1748435;79;21577;-60
2021/06/04 07:24:15;;;;;;;3.72;0.98;;;;;;;19.73;39.35;100091.25;1748188;79;21485;-57
2021/06/04 07:26:44;;;;;;;5.30;0.60;;;;;;;19.75;39.87;100094.70;1748865;79;21042;-57
2021/06/04 07:29:11;;;;;;;6.17;0.57;;;;;;;19.78;38.61;100087.64;1754593;79;20915;-59
2021/06/04 07:31:38;;;;;;;1.70;0.60;;;;;;;19.84;39.32;100095.81;1753850;79;21006;-59
2021/06/04 07:34:05;;;;;;;6.62;0.70;;;;;;;19.91;38.54;100087.49;1750884;79;21121;-58
2021/06/04 07:36:37;;;;;;;8.35;0.80;;;;;;;19.94;38.77;100089.98;1752948;79;21138;-57
2021/06/04 07:39:07;;;;;;;5.80;0.60;;;;;;;20.00;37.58;100090.34;1756687;79;21065;-58
2021/06/04 07:41:34;;;;;;;4.33;0.68;;;;;;;20.08;37.08;100084.74;1748216;79;20998;-60
2021/06/04 07:44:01;;;;;;;4.08;0.85;;;;;;;20.15;37.43;100073.20;1750996;79;21105;-58
2021/06/04 07:46:28;;;;;;;24.45;0.90;;;;;;;20.24;36.68;100072.45;1749643;79;21114;-57
2021/06/04 07:48:54;;;;;;;1.60;0.50;;;;;;;20.27;37.09;100084.47;1750339;79;21165;-58
2021/06/04 07:51:25;;;;;;;9.00;0.53;;;;;;;20.31;35.85;100078.27;1747483;79;21471;-58
2021/06/04 07:53:53;;;;;;;3.98;0.70;;;;;;;20.28;36.00;100073.91;1745964;79;21052;-57
2021/06/04 07:56:21;;;;;;;1.72;0.60;;;;;;;20.30;35.96;100073.80;1750816;79;21043;-58
2021/06/04 07:58:49;;;;;;;2.52;0.50;;;;;;;20.31;36.36;100069.57;1749195;79;21057;-59
2021/06/04 08:01:16;;;;;;;1.10;0.60;;;;;;;20.30;36.50;100071.93;1695433;82;21793;-58
2021/06/04 08:03:44;;;;;;;4.30;1.30;;;;;;;20.31;36.96;100066.84;1750007;79;21089;-57
2021/06/04 08:06:12;;;;;;;6.67;0.65;;;;;;;20.30;37.50;100065.59;1754642;80;20986;-58
2021/06/04 08:11:40;;;;;;;8.00;0.70;;;;;;;20.23;37.81;100063.00;1775085;78;28887;-55
2021/06/04 08:14:10;;;;;;;1.25;0.60;;;;;;;20.14;38.64;100064.64;1740444;80;20981;-55
2021/06/04 08:16:39;;;;;;;6.87;0.50;;;;;;;20.14;38.09;100066.50;1741799;80;21497;-56
2021/06/04 08:19:06;;;;;;;3.02;0.50;;;;;;;20.15;37.62;100055.94;1745341;80;20938;-55
2021/06/04 08:21:40;;;;;;;4.72;0.55;;;;;;;20.14;37.79;100068.73;1745476;80;20962;-55
2021/06/04 08:24:10;;;;;;;3.83;0.50;;;;;;;20.10;35.77;100076.80;1746677;80;20894;-56
2021/06/04 08:26:36;;;;;;;2.45;0.50;;;;;;;20.07;35.84;100073.47;1743799;80;21433;-55
2021/06/04 08:29:04;;;;;;;3.83;0.50;;;;;;;20.07;36.12;100062.05;1741944;80;21877;-55
2021/06/04 08:31:30;;;;;;;7.92;0.60;;;;;;;20.17;36.14;100057.53;1746710;80;20922;-56
2021/06/04 08:33:57;;;;;;;2.10;0.50;;;;;;;20.33;37.24;100071.66;1677134;81;22445;-55
2021/06/04 08:36:28;;;;;;;1.42;0.40;;;;;;;20.48;35.28;100069.55;1711924;81;21006;-57
2021/06/04 08:38:57;;;;;;;0.93;0.40;;;;;;;20.61;33.90;100063.41;1703104;81;21602;-54
2021/06/04 08:41:51;;;;;;;2.58;0.30;;;;;;;20.73;33.61;100051.93;1705802;81;21102;-57
2021/06/04 08:44:30;;;;;;;;;;;;;;;20.82;34.20;100059.84;1676730;83;21137;-55
2021/06/04 08:47:16;;;;;;;1.25;0.42;;;;;;;20.93;35.12;100052.44;1674451;83;20384;-58
2021/06/04 08:50:18;;;;;;;0.93;0.30;;;;;;;21.07;35.98;100061.70;1690810;82;21611;-55
2021/06/04 08:52:52;;;;;;;4.25;0.50;;;;;;;21.19;32.99;100063.02;1669465;83;21116;-56
2021/06/04 08:55:38;;;;;;;2.50;0.40;;;;;;;21.25;33.61;100055.66;1684894;82;22408;-56
2021/06/04 08:58:35;;;;;;;1.67;0.50;;;;;;;21.35;34.20;100057.97;1691672;82;21096;-57
2021/06/04 09:01:36;;;;;;;4.62;0.40;;;;;;;21.43;33.37;100048.07;1687082;82;21137;-57
2021/06/04 09:04:22;;;;;;;2.10;0.40;;;;;;;21.44;33.63;100054.38;1682192;82;21125;-58
2021/06/04 09:06:54;;;;;;;1.40;0.40;;;;;;;21.41;33.11;100058.28;1683627;82;21092;-56
2021/06/04 09:09:49;;;;;;;1.35;0.62;;;;;;;21.37;32.42;100068.26;1682494;82;21928;-56
2021/06/04 09:12:20;;;;;;;2.25;0.80;;;;;;;21.33;32.91;100062.70;1685465;82;21375;-57
2021/06/04 09:14:48;;;;;;;2.35;0.40;;;;;;;21.36;33.47;100055.06;1685833;82;21037;-56
2021/06/04 09:17:31;;;;;;;2.15;0.40;;;;;;;21.42;33.14;100058.66;1684776;82;21080;-56
2021/06/04 09:20:12;;;;;;;1.98;0.40;;;;;;;21.49;33.26;100050.26;1681965;82;21435;-57
2021/06/04 09:22:45;;;;;;;2.15;0.40;;;;;;;21.62;33.10;100047.28;1688774;82;21125;-57
2021/06/04 09:25:17;;;;;;;2.37;0.40;;;;;;;21.71;32.37;100054.67;1687125;82;20958;-58
2021/06/04 09:27:49;;;;;;;3.98;0.40;;;;;;;21.77;32.94;100050.04;1683843;82;20998;-57
2021/06/04 09:30:41;;;;;;;0.80;0.50;;;;;;;21.84;32.75;100048.47;1688351;82;20934;-57
2021/06/04 09:33:13;;;;;;;2.67;0.40;;;;;;;21.94;32.88;100053.13;1687157;82;20960;-58
2021/06/04 09:36:06;;;;;;;0.78;0.50;;;;;;;21.91;32.35;100048.78;1662575;84;21069;-60
2021/06/04 09:38:41;;;;;;;5.62;0.90;;;;;;;21.86;31.94;100049.71;1681180;82;21191;-59
2021/06/04 09:41:25;;;;;;;5.15;0.50;;;;;;;21.87;32.62;100048.67;1685559;82;20990;-57
2021/06/04 09:44:21;;;;;;;2.37;0.98;;;;;;;21.92;32.70;100044.17;1684416;83;20995;-59
2021/06/04 09:46:59;;;;;;;6.00;1.20;;;;;;;21.93;31.96;100044.53;1685188;82;21355;-58
2021/06/04 09:49:46;;;;;;;1.98;0.90;;;;;;;21.89;32.46;100043.93;1684296;82;21382;-57
2021/06/04 09:52:36;;;;;;;1.70;0.50;;;;;;;21.86;31.80;100048.34;1682222;82;21002;-58
2021/06/04 09:55:24;;;;;;;2.27;0.40;;;;;;;21.76;31.48;100044.69;1679683;82;20930;-58
2021/06/04 09:58:14;;;;;;;2.58;0.50;;;;;;;21.71;31.06;100042.34;1687026;82;20958;-56
2021/06/04 10:00:47;;;;;;;3.00;0.40;;;;;;;21.70;30.99;100027.41;1683994;82;20923;-57
2021/06/04 10:03:31;;;;;;;8.95;0.50;;;;;;;21.70;32.23;100031.02;1685408;82;21081;-58
2021/06/04 10:06:24;;;;;;;3.00;0.50;;;;;;;21.75;32.07;100034.73;1690253;82;21021;-57
2021/06/04 10:09:19;;;;;;;1.30;0.40;;;;;;;21.75;31.52;100037.47;1682519;82;21018;-57
2021/06/04 10:11:56;;;;;;;6.03;0.30;;;;;;;21.64;31.50;100032.95;1689364;82;20991;-56
2021/06/04 10:14:57;;;;;;;1.45;0.40;;;;;;;21.60;31.93;100034.75;1691322;83;21017;-57
2021/06/04 10:17:46;;;;;;;2.30;0.40;;;;;;;21.57;31.71;100027.66;1652712;83;21870;-57
2021/06/04 10:20:38;;;;;;;2.60;0.40;;;;;;;21.56;31.50;100029.16;1671396;83;22148;-57
2021/06/04 10:23:15;;;;;;;37.50;2.27;;;;;;;21.53;32.78;100024.31;1674280;83;21092;-60
2021/06/04 10:25:57;;;;;;;2.90;0.40;;;;;;;21.61;32.80;100024.13;1689338;83;21700;-59
2021/06/04 10:28:38;;;;;;;1.35;0.42;;;;;;;21.67;33.75;100027.20;1675513;83;21063;-56
2021/06/04 10:31:23;;;;;;;2.55;0.50;;;;;;;21.73;32.05;100024.41;1677881;83;21150;-56
2021/06/04 10:34:24;;;;;;;2.02;0.47;;;;;;;21.75;32.38;100026.52;1673056;83;21136;-60
2021/06/04 10:36:55;;;;;;;4.72;0.50;;;;;;;21.76;30.47;100029.63;1673974;83;21108;-58
2021/06/04 10:39:38;;;;;;;1.87;0.37;;;;;;;21.76;32.41;100025.02;1676154;83;21036;-58
2021/06/04 10:42:39;;;;;;;5.50;0.40;;;;;;;21.84;31.53;100027.05;1683255;83;21083;-58
2021/06/04 10:45:23;;;;;;;3.15;0.65;;;;;;;21.92;31.26;100024.48;1677039;83;22453;-56
2021/06/04 10:48:21;;;;;;;4.03;0.62;;;;;;;21.96;32.34;100015.46;1673056;83;21099;-59
2021/06/04 10:50:59;;;;;;;4.95;0.40;;;;;;;21.94;32.42;100018.37;1664053;84;21065;-56
2021/06/04 10:54:07;;;;;;;3.08;0.40;;;;;;;21.84;31.02;100027.92;1677817;83;21128;-57
2021/06/04 10:56:38;;;;;;;2.25;0.50;;;;;;;21.76;31.24;100025.52;1679162;83;21072;-59
2021/06/04 10:59:40;;;;;;;1.00;0.40;;;;;;;21.66;31.77;100025.97;1694091;82;21110;-57
2021/06/04 11:02:36;;;;;;;3.02;0.37;;;;;;;21.61;32.13;100026.36;1672593;83;21100;-57
2021/06/04 11:05:32;;;;;;;6.15;0.40;;;;;;;21.56;33.03;100022.31;1675049;83;21484;-57
2021/06/04 11:08:36;;;;;;;2.20;0.40;;;;;;;21.49;32.03;100019.27;1697882;82;21020;-56
2021/06/04 11:11:21;;;;;;;0.80;0.30;;;;;;;21.48;32.87;100022.50;1675908;83;21733;-57
2021/06/04 11:14:33;;;;;;;2.70;0.40;;;;;;;21.48;32.51;100017.02;1680613;83;21116;-59
2021/06/04 11:17:23;;;;;;;2.80;0.30;;;;;;;21.55;31.33;100010.98;1681597;83;21139;-58
2021/06/04 11:20:13;;;;;;;3.33;0.60;;;;;;;21.58;31.97;100017.08;1677402;83;21625;-57
2021/06/04 11:23:32;;;;;;;2.05;0.40;;;;;;;21.62;31.33;100013.53;1652563;83;21071;-57
2021/06/04 11:26:03;;;;;;;2.87;0.50;;;;;;;21.68;31.49;100009.77;1677888;83;20992;-58
2021/06/04 11:28:43;;;;;;;4.22;0.33;;;;;;;21.78;30.54;100016.13;1673598;83;21493;-61
2021/06/04 11:31:34;;;;;;;3.75;0.40;;;;;;;21.84;31.21;100011.48;1673509;83;21309;-59
2021/06/04 11:34:05;;;;;;;0.60;0.30;;;;;;;21.94;31.10;100006.53;1662157;83;20916;-58
2021/06/04 11:36:34;;;;;;;4.00;0.37;;;;;;;22.01;29.60;100011.34;1682048;83;21144;-57
2021/06/04 11:39:11;;;;;;;3.30;0.40;;;;;;;22.08;29.61;100007.53;1680188;83;21029;-58
2021/06/04 11:41:54;;;;;;;0.75;0.28;;;;;;;22.12;30.05;100011.70;1696878;82;21743;-57
2021/06/04 11:44:50;;;;;;;1.80;0.40;;;;;;;22.20;29.01;100010.53;1685601;83;21012;-59
2021/06/04 11:47:24;;;;;;;2.27;0.30;;;;;;;22.24;29.15;100007.34;1679091;83;21528;-57
2021/06/04 11:50:06;;;;;;;2.58;0.40;;;;;;;22.28;29.99;100003.83;1694048;82;20955;-58
2021/06/04 11:52:39;;;;;;;3.02;0.23;;;;;;;22.33;29.00;100000.14;1701913;82;21641;-59
2021/06/04 11:55:30;;;;;;;0.57;0.40;;;;;;;22.38;28.61;99998.33;1679565;83;21088;-58
2021/06/04 11:58:05;;;;;;;2.25;0.30;;;;;;;22.39;29.15;100002.80;1696632;82;21087;-57
2021/06/04 12:00:47;;;;;;;3.58;0.40;;;;;;;22.37;29.03;99993.87;1679747;83;21679;-58
2021/06/04 12:03:26;;;;;;;7.95;0.40;;;;;;;22.33;29.98;99997.40;1701383;82;21468;-59